Time;durP1;ratioP1;P1;durP2;ratioP2;P2;SDS_P1;SDS_P2;PMS_P1;PMS_P2;Temp;Humidity;BMP_temperature;BMP_pressure;BME280_temperature;BME280_humidity;BME280_pressure;Samples;Min_cycle;Max_cycle;Signal;HPM_P1;HPM_P2
2022/09/28 00:03:22;;;;;;;;;;;;;;;;;;8378752;28;27448;-76
2022/09/28 00:07:23;;;;;;;;;;;;;;;;;;8377731;28;27841;-74
2022/09/28 00:11:23;;;;;;;;;;;;;;;;;;8378646;28;28199;-75
2022/09/28 00:15:23;;;;;;;;;;;;;;;;;;8379078;28;28334;-74
2022/09/28 00:19:23;;;;;;;;;;;;;;;;;;8379022;27;27891;-74
2022/09/28 00:23:23;;;;;;;;;;;;;;;;;;8381913;28;29461;-75
2022/09/28 00:27:23;;;;;;;;;;;;;;;;;;8376979;28;27547;-75
2022/09/28 00:31:24;;;;;;;;;;;;;;;;;;8380040;28;29401;-74
2022/09/28 00:35:24;;;;;;;;;;;;;;;;;;8378201;28;28860;-74
2022/09/28 00:39:25;;;;;;;;;;;;;;;;;;8379896;28;27386;-75
2022/09/28 00:43:26;;;;;;;;;;;;;;;;;;8373447;28;27372;-74
2022/09/28 00:47:27;;;;;;;;;;;;;;;;;;8375366;28;27256;-74
2022/09/28 00:51:27;;;;;;;;;;;;;;;;;;8375256;28;27831;-74
2022/09/28 00:55:27;;;;;;;;;;;;;;;;;;8371636;28;28616;-74
2022/09/28 00:59:28;;;;;;;;;;;;;;;;;;8377554;28;27941;-74
2022/09/28 01:03:28;;;;;;;;;;;;;;;;;;8381927;28;28346;-74
2022/09/28 01:07:28;;;;;;;;;;;;;;;;;;8377638;28;28254;-75
2022/09/28 01:11:28;;;;;;;;;;;;;;;;;;8375301;28;28886;-74
2022/09/28 01:15:29;;;;;;;;;;;;;;;;;;8375908;28;27503;-74
2022/09/28 01:19:30;;;;;;;;;;;;;;;;;;8377014;28;29137;-74
2022/09/28 01:23:30;;;;;;;;;;;;;;;;;;8377127;28;28263;-74
2022/09/28 01:27:30;;;;;;;;;;;;;;;;;;8368233;28;27661;-75
2022/09/28 01:31:30;;;;;;;;;;;;;;;;;;8372775;28;28652;-74
2022/09/28 01:35:30;;;;;;;;;;;;;;;;;;8375666;28;27878;-74
2022/09/28 01:39:30;;;;;;;;;;;;;;;;;;8380883;28;29137;-75
2022/09/28 01:43:31;;;;;;;;;;;;;;;;;;8375045;28;27421;-74
2022/09/28 01:47:31;;;;;;;;;;;;;;;;;;8374732;28;27796;-74
2022/09/28 01:51:31;;;;;;;;;;;;;;;;;;8376708;28;29138;-75
2022/09/28 01:55:31;;;;;;;;;;;;;;;;;;8376867;28;28134;-75
2022/09/28 01:59:31;;;;;;;;;;;;;;;;;;8380226;28;28644;-75
2022/09/28 02:03:31;;;;;;;;;;;;;;;;;;8375936;28;28701;-75
2022/09/28 02:07:31;;;;;;;;;;;;;;;;;;8376935;28;28762;-74
2022/09/28 02:11:36;;;;;;;;;;;;;;;;;;8373830;28;28003;-74
2022/09/28 02:15:36;;;;;;;;;;;;;;;;;;8373330;28;27400;-75
2022/09/28 02:19:36;;;;;;;;;;;;;;;;;;8374780;28;27603;-74
2022/09/28 02:23:36;;;;;;;;;;;;;;;;;;8372615;28;27718;-74
2022/09/28 02:27:36;;;;;;;;;;;;;;;;;;8370476;28;28843;-75
2022/09/28 02:31:36;;;;;;;;;;;;;;;;;;8374285;28;28232;-74
2022/09/28 02:35:36;;;;;;;;;;;;;;;;;;8379671;28;28618;-75
2022/09/28 02:39:37;;;;;;;;;;;;;;;;;;8379278;28;28600;-73
2022/09/28 02:43:37;;;;;;;;;;;;;;;;;;8385319;28;28674;-75
2022/09/28 02:47:37;;;;;;;;;;;;;;;;;;8379246;28;28650;-75
2022/09/28 02:51:38;;;;;;;;;;;;;;;;;;8380696;28;28478;-75
2022/09/28 02:55:38;;;;;;;;;;;;;;;;;;8382234;28;28425;-76
2022/09/28 02:59:38;;;;;;;;;;;;;;;;;;8381236;28;29344;-76
2022/09/28 03:03:38;;;;;;;;;;;;;;;;;;8376332;28;27769;-73
2022/09/28 03:07:38;;;;;;;;;;;;;;;;;;8380194;28;27794;-74
2022/09/28 03:11:39;;;;;;;;;;;;;;;;;;8378801;28;27986;-75
2022/09/28 03:15:40;;;;;;;;;;;;;;;;;;8381472;28;28181;-74
2022/09/28 03:19:40;;;;;;;;;;;;;;;;;;8377174;28;28343;-74
2022/09/28 03:23:41;;;;;;;;;;;;;;;;;;8379910;28;28226;-75
2022/09/28 03:27:41;;;;;;;;;;;;;;;;;;8375808;28;27878;-74
2022/09/28 03:31:43;;;;;;;;;;;;;;;;;;8378482;28;27920;-74
2022/09/28 03:35:43;;;;;;;;;;;;;;;;;;8378257;28;27271;-74
2022/09/28 03:39:43;;;;;;;;;;;;;;;;;;8381353;28;28608;-74
2022/09/28 03:43:43;;;;;;;;;;;;;;;;;;8381377;27;28997;-75
2022/09/28 03:47:43;;;;;;;;;;;;;;;;;;8378199;28;27555;-75
2022/09/28 03:51:43;;;;;;;;;;;;;;;;;;8379233;28;27430;-75
2022/09/28 03:55:43;;;;;;;;;;;;;;;;;;8378369;28;27805;-75
2022/09/28 03:59:43;;;;;;;;;;;;;;;;;;8378784;28;28644;-74
2022/09/28 04:03:44;;;;;;;;;;;;;;;;;;8377160;28;28020;-74
2022/09/28 04:07:44;;;;;;;;;;;;;;;;;;8381205;28;28891;-75
2022/09/28 04:11:44;;;;;;;;;;;;;;;;;;8374900;28;27866;-75
2022/09/28 04:15:44;;;;;;;;;;;;;;;;;;8380186;28;28001;-75
2022/09/28 04:19:45;;;;;;;;;;;;;;;;;;8379343;28;28441;-74
2022/09/28 04:23:45;;;;;;;;;;;;;;;;;;8376291;28;27754;-74
2022/09/28 04:32:04;;;;;;;;;;;;;;;;;;8376910;28;27694;-73
2022/09/28 04:36:05;;;;;;;;;;;;;;;;;;8377113;28;28578;-73
2022/09/28 04:40:05;;;;;;;;;;;;;;;;;;8368430;28;27443;-74
2022/09/28 04:44:05;;;;;;;;;;;;;;;;;;8371690;28;27979;-74
2022/09/28 04:48:05;;;;;;;;;;;;;;;;;;8376005;28;27285;-74
2022/09/28 04:52:05;;;;;;;;;;;;;;;;;;8379396;28;27617;-74
2022/09/28 04:56:05;;;;;;;;;;;;;;;;;;8378633;28;27475;-75
2022/09/28 05:00:05;;;;;;;;;;;;;;;;;;8376018;28;28232;-74
2022/09/28 05:04:05;;;;;;;;;;;;;;;;;;8375516;28;27296;-74
2022/09/28 05:08:06;;;;;;;;;;;;;;;;;;8376103;28;27563;-75
2022/09/28 05:12:06;;;;;;;;;;;;;;;;;;8375190;28;27643;-75
2022/09/28 05:16:06;;;;;;;;;;;;;;;;;;8378039;28;27348;-76
2022/09/28 05:20:06;;;;;;;;;;;;;;;;;;8377203;28;28648;-77
2022/09/28 05:24:07;;;;;;;;;;;;;;;;;;8377247;28;27845;-75
2022/09/28 05:28:07;;;;;;;;;;;;;;;;;;8379788;27;28683;-74
2022/09/28 05:32:07;;;;;;;;;;;;;;;;;;8380732;28;28188;-76
2022/09/28 05:36:07;;;;;;;;;;;;;;;;;;8376983;28;28605;-74
2022/09/28 05:40:07;;;;;;;;;;;;;;;;;;8377525;28;28622;-75
2022/09/28 05:44:07;;;;;;;;;;;;;;;;;;8376775;28;27486;-75
2022/09/28 05:48:07;;;;;;;;;;;;;;;;;;8380490;28;28508;-75
2022/09/28 05:52:08;;;;;;;;;;;;;;;;;;8373534;28;28091;-75
2022/09/28 05:56:08;;;;;;;;;;;;;;;;;;8377666;28;28647;-76
2022/09/28 06:00:08;;;;;;;;;;;;;;;;;;8376613;28;27950;-74
2022/09/28 06:04:08;;;;;;;;;;;;;;;;;;8376161;28;28415;-74
2022/09/28 06:08:09;;;;;;;;;;;;;;;;;;8372640;28;27549;-74
2022/09/28 06:12:09;;;;;;;;;;;;;;;;;;8381232;28;28173;-75
2022/09/28 06:16:10;;;;;;;;;;;;;;;;;;8388151;28;28417;-74
2022/09/28 06:20:10;;;;;;;;;;;;;;;;;;8385029;28;28612;-75
2022/09/28 06:24:10;;;;;;;;;;;;;;;;;;8374414;28;28716;-74
2022/09/28 06:28:10;;;;;;;;;;;;;;;;;;8378731;28;27361;-76
2022/09/28 06:32:12;;;;;;;;;;;;;;;;;;8385620;28;27316;-76
2022/09/28 06:36:12;;;;;;;;;;;;;;;;;;8379257;28;27189;-75
2022/09/28 06:40:13;;;;;;;;;;;;;;;;;;8381310;28;27739;-75
2022/09/28 06:44:13;;;;;;;;;;;;;;;;;;8378667;28;28165;-74
2022/09/28 06:48:13;;;;;;;;;;;;;;;;;;8384234;28;27958;-74
2022/09/28 06:52:14;;;;;;;;;;;;;;;;;;8377097;28;28496;-74
2022/09/28 06:56:14;;;;;;;;;;;;;;;;;;8383346;28;27461;-75
2022/09/28 07:00:14;;;;;;;;;;;;;;;;;;8381007;28;27394;-74
2022/09/28 07:04:14;;;;;;;;;;;;;;;;;;8382479;28;27337;-75
2022/09/28 07:08:14;;;;;;;;;;;;;;;;;;8378667;28;27321;-74
2022/09/28 07:12:14;;;;;;;;;;;;;;;;;;8383183;28;27440;-75
2022/09/28 07:16:15;;;;;;;;;;;;;;;;;;8382882;28;27950;-73
2022/09/28 07:20:15;;;;;;;;;;;;;;;;;;8381787;28;28316;-75
2022/09/28 07:24:15;;;;;;;;;;;;;;;;;;8379950;28;27691;-73
2022/09/28 07:28:16;;;;;;;;;;;;;;;;;;8380213;28;28197;-75
2022/09/28 07:32:16;;;;;;;;;;;;;;;;;;8378451;28;27379;-74
2022/09/28 07:36:17;;;;;;;;;;;;;;;;;;8380542;28;28734;-75
2022/09/28 07:44:38;;;;;;;;;;;;;;;;;;8375908;28;27189;-74
2022/09/28 07:48:38;;;;;;;;;;;;;;;;;;8380267;28;28112;-75
2022/09/28 07:52:38;;;;;;;;;;;;;;;;;;8378493;28;27818;-74
2022/09/28 07:56:38;;;;;;;;;;;;;;;;;;8380906;28;27681;-75
2022/09/28 08:00:39;;;;;;;;;;;;;;;;;;8376030;28;27557;-73
2022/09/28 08:04:39;;;;;;;;;;;;;;;;;;8381557;28;27171;-74
2022/09/28 08:08:42;;;;;;;;;;;;;;;;;;8376110;28;27545;-73
2022/09/28 08:12:43;;;;;;;;;;;;;;;;;;8376005;28;27306;-75
2022/09/28 08:16:44;;;;;;;;;;;;;;;;;;8376125;28;27714;-75
2022/09/28 08:25:03;;;;;;;;;;;;;;;;;;8381917;28;27388;-74
2022/09/28 08:29:03;;;;;;;;;;;;;;;;;;8378331;27;28519;-73
2022/09/28 08:33:06;;;;;;;;;;;;;;;;;;8381963;28;27350;-73
2022/09/28 08:37:07;;;;;;;;;;;;;;;;;;8383774;28;28962;-74
2022/09/28 08:41:08;;;;;;;;;;;;;;;;;;8381950;28;28709;-75
2022/09/28 08:45:08;;;;;;;;;;;;;;;;;;8380843;28;27373;-75
2022/09/28 08:49:09;;;;;;;;;;;;;;;;;;8380449;28;28290;-74
2022/09/28 08:53:09;;;;;;;;;;;;;;;;;;8377665;28;28177;-76
2022/09/28 08:57:09;;;;;;;;;;;;;;;;;;8374196;28;28620;-75
2022/09/28 09:01:14;;;;;;;;;;;;;;;;;;8380407;28;27875;-77
2022/09/28 09:05:14;;;;;;;;;;;;;;;;;;8375476;28;28335;-74
2022/09/28 09:09:15;;;;;;;;;;;;;;;;;;8378384;28;28992;-74
2022/09/28 09:13:16;;;;;;;;;;;;;;;;;;8371130;28;27659;-74
2022/09/28 09:17:17;;;;;;;;;;;;;;;;;;8383209;28;29588;-75
2022/09/28 09:21:17;;;;;;;;;;;;;;;;;;8380090;28;28308;-74
2022/09/28 09:25:17;;;;;;;;;;;;;;;;;;8377774;28;28615;-75
2022/09/28 09:29:17;;;;;;;;;;;;;;;;;;8374423;28;29319;-74
2022/09/28 09:33:22;;;;;;;;;;;;;;;;;;8375171;28;27459;-74
2022/09/28 09:37:23;;;;;;;;;;;;;;;;;;8376449;28;27124;-74
2022/09/28 09:41:23;;;;;;;;;;;;;;;;;;8375760;27;28377;-74
2022/09/28 09:45:23;;;;;;;;;;;;;;;;;;8378586;28;28489;-76
2022/09/28 09:49:23;;;;;;;;;;;;;;;;;;8377959;28;28279;-75
2022/09/28 09:53:23;;;;;;;;;;;;;;;;;;8375503;28;28646;-75
2022/09/28 09:57:24;;;;;;;;;;;;;;;;;;8376665;28;27131;-76
2022/09/28 10:01:24;;;;;;;;;;;;;;;;;;8373265;28;27291;-77
2022/09/28 10:05:26;;;;;;;;;;;;;;;;;;8373657;28;27139;-74
2022/09/28 10:09:26;;;;;;;;;;;;;;;;;;8378335;28;28468;-74
2022/09/28 10:13:28;;;;;;;;;;;;;;;;;;8380874;28;28477;-76
2022/09/28 10:17:28;;;;;;;;;;;;;;;;;;8370074;28;27907;-76
2022/09/28 10:21:28;;;;;;;;;;;;;;;;;;8370570;28;27731;-76
2022/09/28 10:25:28;;;;;;;;;;;;;;;;;;8380179;28;29863;-74
2022/09/28 10:29:28;;;;;;;;;;;;;;;;;;8374356;28;29614;-75
2022/09/28 10:33:28;;;;;;;;;;;;;;;;;;8374950;28;29395;-76
2022/09/28 10:37:28;;;;;;;;;;;;;;;;;;8378810;28;27611;-73
2022/09/28 10:41:30;;;;;;;;;;;;;;;;;;8374574;28;28315;-75
2022/09/28 10:45:30;;;;;;;;;;;;;;;;;;8379709;28;28307;-73
2022/09/28 10:49:30;;;;;;;;;;;;;;;;;;8375282;28;28426;-75
2022/09/28 10:53:30;;;;;;;;;;;;;;;;;;8373956;28;27447;-74
2022/09/28 10:57:31;;;;;;;;;;;;;;;;;;8383756;28;27210;-74
2022/09/28 11:01:31;;;;;;;;;;;;;;;;;;8376464;28;28770;-74
2022/09/28 11:05:31;;;;;;;;;;;;;;;;;;8379634;28;27841;-74
2022/09/28 11:09:32;;;;;;;;;;;;;;;;;;8387330;28;27390;-74
2022/09/28 11:25:10;;;;;;;;;;;;;;;;;;8531983;27;28532;-76
2022/09/28 11:29:11;;;;;;;;;;;;;;;;;;8537151;27;27291;-74
2022/09/28 11:33:11;;;;;;;;;;;;;;;;;;8503570;27;28725;-75
2022/09/28 11:37:11;;;;;;;;;;;;;;;;;;8504431;27;28009;-74
2022/09/28 11:41:11;;;;;;;;;;;;;;;;;;8498668;27;28153;-74
2022/09/28 11:45:11;;;;;;;;;;;;;;;;;;8499956;27;28028;-75
2022/09/28 11:49:11;;;;;;;;;;;;;;;;;;8500205;27;28131;-75
2022/09/28 11:53:12;;;;;;;;;;;;;;;;;;8501723;27;28120;-75
2022/09/28 11:57:12;;;;;;;;;;;;;;;;;;8503399;27;27413;-74
2022/09/28 12:01:12;;;;;;;;;;;;;;;;;;8506730;27;28420;-74
2022/09/28 12:05:12;;;;;;;;;;;;;;;;;;8485446;27;28360;-75
2022/09/28 12:09:12;;;;;;;;;;;;;;;;;;8505663;27;27491;-74
2022/09/28 12:13:12;;;;;;;;;;;;;;;;;;8487577;27;28738;-75
2022/09/28 12:17:12;;;;;;;;;;;;;;;;;;8500184;27;28142;-75
2022/09/28 12:21:12;;;;;;;;;;;;;;;;;;8490246;27;28648;-75
2022/09/28 12:25:13;;;;;;;;;;;;;;;;;;8488127;27;29484;-75
2022/09/28 12:29:13;;;;;;;;;;;;;;;;;;8484935;27;28375;-75
2022/09/28 12:33:16;;;;;;;;;;;;;;;;;;8483459;27;28483;-75
2022/09/28 12:37:16;;;;;;;;;;;;;;;;;;8481892;27;27278;-76
2022/09/28 12:41:17;;;;;;;;;;;;;;;;;;8476028;27;27782;-76
2022/09/28 12:45:17;;;;;;;;;;;;;;;;;;8478739;27;29078;-75
2022/09/28 12:49:17;;;;;;;;;;;;;;;;;;8456720;27;28204;-74
2022/09/28 12:53:18;;;;;;;;;;;;;;;;;;8461204;27;28202;-76
2022/09/28 12:57:19;;;;;;;;;;;;;;;;;;8465792;27;28776;-75
2022/09/28 13:01:19;;;;;;;;;;;;;;;;;;8459360;27;28794;-77
2022/09/28 13:05:19;;;;;;;;;;;;;;;;;;8472513;27;27461;-75
2022/09/28 13:09:20;;;;;;;;;;;;;;;;;;8465771;27;28556;-76
2022/09/28 13:13:20;;;;;;;;;;;;;;;;;;8461219;27;28759;-76
2022/09/28 13:17:20;;;;;;;;;;;;;;;;;;8459300;27;29236;-76
2022/09/28 13:21:20;;;;;;;;;;;;;;;;;;8462743;27;29044;-76
2022/09/28 13:25:20;;;;;;;;;;;;;;;;;;8466828;27;28335;-76
2022/09/28 13:29:21;;;;;;;;;;;;;;;;;;8479940;27;27473;-76
2022/09/28 13:33:21;;;;;;;;;;;;;;;;;;8478817;27;27345;-75
2022/09/28 13:37:24;;;;;;;;;;;;;;;;;;8464445;27;28143;-76
2022/09/28 13:41:27;;;;;;;;;;;;;;;;;;8460918;27;28506;-75
2022/09/28 13:45:28;;;;;;;;;;;;;;;;;;8476880;27;27794;-78
2022/09/28 13:49:28;;;;;;;;;;;;;;;;;;8478612;27;27868;-76
2022/09/28 13:53:28;;;;;;;;;;;;;;;;;;8463681;27;28310;-75
2022/09/28 13:57:28;;;;;;;;;;;;;;;;;;8477242;27;27938;-75
2022/09/28 14:01:28;;;;;;;;;;;;;;;;;;8475504;27;27428;-76
2022/09/28 14:05:29;;;;;;;;;;;;;;;;;;8462062;27;28171;-72
2022/09/28 14:09:29;;;;;;;;;;;;;;;;;;8476079;27;27493;-75
2022/09/28 14:13:29;;;;;;;;;;;;;;;;;;8462689;27;28151;-77
2022/09/28 14:17:30;;;;;;;;;;;;;;;;;;8466739;27;28664;-76
2022/09/28 14:21:30;;;;;;;;;;;;;;;;;;8474692;27;27586;-75
2022/09/28 14:25:30;;;;;;;;;;;;;;;;;;8456517;27;28525;-75
2022/09/28 14:29:30;;;;;;;;;;;;;;;;;;8457206;27;28714;-76
2022/09/28 14:33:30;;;;;;;;;;;;;;;;;;8457684;27;28316;-77
2022/09/28 14:41:51;;;;;;;;;;;;;;;;;;8478983;27;27890;-75
2022/09/28 14:45:53;;;;;;;;;;;;;;;;;;8471426;27;28647;-74
2022/09/28 14:49:53;;;;;;;;;;;;;;;;;;8478952;27;27295;-75
2022/09/28 14:53:53;;;;;;;;;;;;;;;;;;8458984;27;29162;-76
2022/09/28 14:57:54;;;;;;;;;;;;;;;;;;8456633;27;28405;-75
2022/09/28 15:01:54;;;;;;;;;;;;;;;;;;8461752;27;28120;-75
2022/09/28 15:05:54;;;;;;;;;;;;;;;;;;8474296;27;28391;-75
2022/09/28 15:09:54;;;;;;;;;;;;;;;;;;8478086;27;27198;-75
2022/09/28 15:13:57;;;;;;;;;;;;;;;;;;8460788;27;28755;-75
2022/09/28 15:17:57;;;;;;;;;;;;;;;;;;8454441;27;29971;-76
2022/09/28 15:21:57;;;;;;;;;;;;;;;;;;8459639;27;29506;-76
2022/09/28 15:25:57;;;;;;;;;;;;;;;;;;8458196;27;28739;-75
2022/09/28 15:29:57;;;;;;;;;;;;;;;;;;8475791;27;27285;-75
2022/09/28 15:38:16;;;;;;;;;;;;;;;;;;8471836;27;27340;-76
2022/09/28 15:42:17;;;;;;;;;;;;;;;;;;8466183;27;27873;-76
2022/09/28 15:46:17;;;;;;;;;;;;;;;;;;8469595;27;28314;-76
2022/09/28 15:50:17;;;;;;;;;;;;;;;;;;8476554;27;27550;-77
2022/09/28 15:54:18;;;;;;;;;;;;;;;;;;8455436;27;27635;-76
2022/09/28 15:58:18;;;;;;;;;;;;;;;;;;8456722;27;28535;-76
2022/09/28 16:02:19;;;;;;;;;;;;;;;;;;8459135;27;29412;-77
2022/09/28 16:06:20;;;;;;;;;;;;;;;;;;8456568;27;29393;-76
2022/09/28 16:10:20;;;;;;;;;;;;;;;;;;8473554;27;28204;-77
2022/09/28 16:14:20;;;;;;;;;;;;;;;;;;8469198;27;28608;-77
2022/09/28 16:18:22;;;;;;;;;;;;;;;;;;8483098;27;27413;-76
2022/09/28 16:22:22;;;;;;;;;;;;;;;;;;8478726;27;27565;-77
2022/09/28 16:26:23;;;;;;;;;;;;;;;;;;8481300;27;27565;-77
2022/09/28 16:30:23;;;;;;;;;;;;;;;;;;8482494;27;27313;-76
2022/09/28 16:34:23;;;;;;;;;;;;;;;;;;8478725;27;27567;-77
2022/09/28 16:38:24;;;;;;;;;;;;;;;;;;8479795;27;28149;-76
2022/09/28 16:42:24;;;;;;;;;;;;;;;;;;8465934;27;28470;-74
2022/09/28 16:46:24;;;;;;;;;;;;;;;;;;8466392;27;27759;-74
2022/09/28 16:50:24;;;;;;;;;;;;;;;;;;8466549;27;28251;-76
2022/09/28 16:58:47;;;;;;;;;;;;;;;;;;8483317;27;27661;-74
2022/09/28 17:02:48;;;;;;;;;;;;;;;;;;8469317;27;28397;-76
2022/09/28 17:06:49;;;;;;;;;;;;;;;;;;8468338;27;28602;-76
2022/09/28 17:10:51;;;;;;;;;;;;;;;;;;8463527;27;28473;-74
2022/09/28 17:14:51;;;;;;;;;;;;;;;;;;8464605;27;28666;-75
2022/09/28 17:18:51;;;;;;;;;;;;;;;;;;8479934;27;29214;-74
2022/09/28 17:22:52;;;;;;;;;;;;;;;;;;8463468;27;28790;-74
2022/09/28 17:26:53;;;;;;;;;;;;;;;;;;8483146;27;27980;-75
2022/09/28 17:30:53;;;;;;;;;;;;;;;;;;8477146;27;27446;-75
2022/09/28 17:34:53;;;;;;;;;;;;;;;;;;8479336;27;27398;-76
2022/09/28 17:38:53;;;;;;;;;;;;;;;;;;8463086;27;29111;-75
2022/09/28 17:42:54;;;;;;;;;;;;;;;;;;8477360;27;27494;-75
2022/09/28 17:46:55;;;;;;;;;;;;;;;;;;8467220;27;29611;-76
2022/09/28 17:50:55;;;;;;;;;;;;;;;;;;8482423;27;28097;-74
2022/09/28 17:54:55;;;;;;;;;;;;;;;;;;8465246;27;29559;-75
2022/09/28 17:58:55;;;;;;;;;;;;;;;;;;8464422;27;29109;-74
2022/09/28 18:02:55;;;;;;;;;;;;;;;;;;8481131;27;28152;-75
2022/09/28 18:06:55;;;;;;;;;;;;;;;;;;8475458;27;27973;-76
2022/09/28 18:10:56;;;;;;;;;;;;;;;;;;8480946;27;27340;-75
2022/09/28 18:14:56;;;;;;;;;;;;;;;;;;8477967;27;27478;-74
2022/09/28 18:18:56;;;;;;;;;;;;;;;;;;8468496;27;28377;-75
2022/09/28 18:22:56;;;;;;;;;;;;;;;;;;8466779;27;28962;-74
2022/09/28 18:26:56;;;;;;;;;;;;;;;;;;8477980;27;28149;-74
2022/09/28 18:30:56;;;;;;;;;;;;;;;;;;8478512;27;28656;-75
2022/09/28 18:34:56;;;;;;;;;;;;;;;;;;8462567;27;28307;-75
2022/09/28 18:38:57;;;;;;;;;;;;;;;;;;8461107;27;28741;-74
2022/09/28 18:42:57;;;;;;;;;;;;;;;;;;8466529;27;29257;-75
2022/09/28 18:46:59;;;;;;;;;;;;;;;;;;8461016;27;28383;-74
2022/09/28 18:50:59;;;;;;;;;;;;;;;;;;8474172;27;27507;-75
2022/09/28 18:54:59;;;;;;;;;;;;;;;;;;8467482;27;28159;-75
2022/09/28 18:59:00;;;;;;;;;;;;;;;;;;8475062;27;27495;-74
2022/09/28 19:03:00;;;;;;;;;;;;;;;;;;8477290;27;27754;-75
2022/09/28 19:07:00;;;;;;;;;;;;;;;;;;8475743;27;27238;-75
2022/09/28 19:11:01;;;;;;;;;;;;;;;;;;8476748;27;28124;-75
2022/09/28 19:15:01;;;;;;;;;;;;;;;;;;8462976;27;28177;-76
2022/09/28 19:19:02;;;;;;;;;;;;;;;;;;8475807;27;27588;-76
2022/09/28 19:23:02;;;;;;;;;;;;;;;;;;8464424;27;29067;-75
2022/09/28 19:27:03;;;;;;;;;;;;;;;;;;8476066;27;28045;-75
2022/09/28 19:31:03;;;;;;;;;;;;;;;;;;8462342;27;28509;-75
2022/09/28 19:35:03;;;;;;;;;;;;;;;;;;8473716;27;27487;-75
2022/09/28 19:39:05;;;;;;;;;;;;;;;;;;8457877;27;28349;-76
2022/09/28 19:43:06;;;;;;;;;;;;;;;;;;8461250;27;28298;-75
2022/09/28 19:47:06;;;;;;;;;;;;;;;;;;8463625;27;28555;-75
2022/09/28 19:51:07;;;;;;;;;;;;;;;;;;8469075;27;29478;-75
2022/09/28 19:55:07;;;;;;;;;;;;;;;;;;8467022;27;28238;-75
2022/09/28 19:59:07;;;;;;;;;;;;;;;;;;8470684;27;28344;-75
2022/09/28 20:03:07;;;;;;;;;;;;;;;;;;8466574;27;29051;-75
2022/09/28 20:07:08;;;;;;;;;;;;;;;;;;8481904;27;28920;-75
2022/09/28 20:11:08;;;;;;;;;;;;;;;;;;8464255;27;28516;-74
2022/09/28 20:15:09;;;;;;;;;;;;;;;;;;8471039;27;28343;-75
2022/09/28 20:19:09;;;;;;;;;;;;;;;;;;8486602;27;27597;-78
2022/09/28 20:23:09;;;;;;;;;;;;;;;;;;8472351;27;28275;-75
2022/09/28 20:27:09;;;;;;;;;;;;;;;;;;8470474;27;28985;-75
2022/09/28 20:31:10;;;;;;;;;;;;;;;;;;8478732;27;27280;-75
2022/09/28 20:35:10;;;;;;;;;;;;;;;;;;8470117;27;28477;-75
2022/09/28 20:39:10;;;;;;;;;;;;;;;;;;8478851;27;27799;-76
2022/09/28 20:43:10;;;;;;;;;;;;;;;;;;8482483;27;27883;-75
2022/09/28 20:47:10;;;;;;;;;;;;;;;;;;8481619;27;27557;-76
2022/09/28 20:51:10;;;;;;;;;;;;;;;;;;8478048;27;28879;-75
2022/09/28 20:55:11;;;;;;;;;;;;;;;;;;8482962;27;27339;-76
2022/09/28 20:59:11;;;;;;;;;;;;;;;;;;8469180;27;28774;-74
2022/09/28 21:03:11;;;;;;;;;;;;;;;;;;8479804;27;27512;-75
2022/09/28 21:07:11;;;;;;;;;;;;;;;;;;8461208;27;28739;-75
2022/09/28 21:11:11;;;;;;;;;;;;;;;;;;8482154;27;27784;-76
2022/09/28 21:15:11;;;;;;;;;;;;;;;;;;8480670;27;27843;-76
2022/09/28 21:19:11;;;;;;;;;;;;;;;;;;8478039;27;27552;-77
2022/09/28 21:23:12;;;;;;;;;;;;;;;;;;8480557;27;27655;-76
2022/09/28 21:27:12;;;;;;;;;;;;;;;;;;8463741;27;28700;-75
2022/09/28 21:31:12;;;;;;;;;;;;;;;;;;8479672;27;28041;-75
2022/09/28 21:35:12;;;;;;;;;;;;;;;;;;8478547;27;27241;-75
2022/09/28 21:39:12;;;;;;;;;;;;;;;;;;8479137;27;27360;-75
2022/09/28 21:43:12;;;;;;;;;;;;;;;;;;8482843;27;27642;-74
2022/09/28 21:47:12;;;;;;;;;;;;;;;;;;8480236;27;27364;-74
2022/09/28 21:51:13;;;;;;;;;;;;;;;;;;8466364;27;28480;-75
2022/09/28 21:55:13;;;;;;;;;;;;;;;;;;8478506;27;27417;-75
2022/09/28 21:59:13;;;;;;;;;;;;;;;;;;8478933;27;29151;-77
2022/09/28 22:03:14;;;;;;;;;;;;;;;;;;8464485;27;28283;-75
2022/09/28 22:07:15;;;;;;;;;;;;;;;;;;8482918;27;27572;-76
2022/09/28 22:11:15;;;;;;;;;;;;;;;;;;8465881;27;29330;-76
2022/09/28 22:15:15;;;;;;;;;;;;;;;;;;8462791;27;29562;-77
2022/09/28 22:19:15;;;;;;;;;;;;;;;;;;8480806;27;27591;-78
2022/09/28 22:23:15;;;;;;;;;;;;;;;;;;8478647;27;27492;-77
2022/09/28 22:27:15;;;;;;;;;;;;;;;;;;8477853;27;27816;-77
2022/09/28 22:31:15;;;;;;;;;;;;;;;;;;8477143;27;27694;-76
2022/09/28 22:35:15;;;;;;;;;;;;;;;;;;8482889;27;27831;-76
2022/09/28 22:39:16;;;;;;;;;;;;;;;;;;8479501;27;28406;-76
2022/09/28 22:43:16;;;;;;;;;;;;;;;;;;8479447;27;27575;-75
2022/09/28 22:47:16;;;;;;;;;;;;;;;;;;8477573;27;27845;-76
2022/09/28 22:51:16;;;;;;;;;;;;;;;;;;8478191;27;28146;-76
2022/09/28 22:55:16;;;;;;;;;;;;;;;;;;8464222;27;28793;-76
2022/09/28 22:59:16;;;;;;;;;;;;;;;;;;8461351;27;28407;-76
2022/09/28 23:03:16;;;;;;;;;;;;;;;;;;8475825;27;27715;-76
2022/09/28 23:07:17;;;;;;;;;;;;;;;;;;8465795;27;28653;-76
2022/09/28 23:11:17;;;;;;;;;;;;;;;;;;8466649;27;28267;-76
2022/09/28 23:15:17;;;;;;;;;;;;;;;;;;8479092;27;28811;-75
2022/09/28 23:19:17;;;;;;;;;;;;;;;;;;8478968;27;27775;-76
2022/09/28 23:23:17;;;;;;;;;;;;;;;;;;8480808;27;27831;-76
2022/09/28 23:27:17;;;;;;;;;;;;;;;;;;8463510;27;28467;-76
2022/09/28 23:31:17;;;;;;;;;;;;;;;;;;8459849;27;28124;-76
2022/09/28 23:35:18;;;;;;;;;;;;;;;;;;8462799;27;29198;-75
2022/09/28 23:39:18;;;;;;;;;;;;;;;;;;8459373;27;28149;-76
2022/09/28 23:43:18;;;;;;;;;;;;;;;;;;8475578;27;29107;-76
2022/09/28 23:47:18;;;;;;;;;;;;;;;;;;8465998;27;29509;-75
2022/09/28 23:51:18;;;;;;;;;;;;;;;;;;8457407;27;29418;-76
2022/09/28 23:55:18;;;;;;;;;;;;;;;;;;8459974;27;28194;-75
2022/09/28 23:59:18;;;;;;;;;;;;;;;;;;8481599;27;27470;-75
